Reamstown, PA (17567)

8:56 AM EST on February 07, 2016 (GMT -0500)
Quail Hollow | | Change Station
CLOSE
Current Station
Personal Weather Station
Location: Denver, PA
Elevation: 459 ft
Nearby Weather Stations

Elev 459 ft 40.22 °N, 76.08 °W | Updated 11 minutes ago

Partly Cloudy
Partly Cloudy
25.5 °F
Feels Like 26 °F
N
0.0
Wind Variable Wind from West

Today
High -- | Low -- °F
--% Chance of Precip.
Yesterday
High -- | Low -- °F
Precip. -- in
Pressure 30.19 in
Visibility 6.0 miles
Clouds Clear
Windchill 26 °F
Dew Point 25 °F
Humidity 99%
Rainfall 0.00 in
Snow Depth Not available.
7:07 AM 5:29 PM
Waning Crescent, 1% visible
METAR KLNS 071353Z AUTO 19003KT 6SM BR CLR M02/M04 A3018 RMK AO2 SLP224 T10221044
Pressure 30.19 in
Visibility 6.0 miles
Clouds Clear
Windchill 26 °F
Dew Point 25 °F
Humidity 99%
Rainfall 0.00 in
Snow Depth Not available.
7:07 AM 5:29 PM
Waning Crescent, 1% visible
METAR KLNS 071353Z AUTO 19003KT 6SM BR CLR M02/M04 A3018 RMK AO2 SLP224 T10221044

10-Day Weather Forecast

Almanac

Astronomy

Feb. 07, 2016 Rise Set
Actual Time
Civil Twilight
Nautical Twilight
Astronomical Twilight
Moon
Length of Visible Light
Length of Day
Tomorrow will be .
, % of the Moon is Illuminated

Today's Extremes

State Highs State Lows

Community

WunderPhotos

Upload Photos

1,891,190 photos uploaded!

WunderBlog® & News

Nearby

Air Quality

  Air Quality AQ Index Pollutant
Not available.

Snow Depth

Station Depth Elevation

Earthquake Activity

City Distance Mag. Time & Date
Minimum magnitude displayed is 2.5.

Coastal Water Temperatures

Place Temperature

Stations

Nearby Weather Stations

Station Location Temp. Windchill Dew Point Humidity Wind Precip. Elev Updated Type
                   

Watches & Warnings

There are currently no watches in effect.